createdAt,value
2019-01-13T00:00:30.672Z,11.16
2019-01-13T00:02:57.323Z,11.18
2019-01-13T00:05:23.982Z,11.17
2019-01-13T00:07:50.638Z,11.14
2019-01-13T00:10:17.280Z,11.14
2019-01-13T00:12:43.916Z,11.15
2019-01-13T00:15:10.559Z,11.15
2019-01-13T00:17:37.258Z,11.23
2019-01-13T00:20:03.899Z,11.28
2019-01-13T00:22:30.550Z,11.25
2019-01-13T00:24:57.195Z,11.22
2019-01-13T00:27:23.845Z,11.25
2019-01-13T00:29:50.755Z,11.24
2019-01-13T00:32:17.394Z,11.22
2019-01-13T00:34:44.051Z,11.21
2019-01-13T00:37:10.716Z,11.20
2019-01-13T00:39:37.368Z,11.15
2019-01-13T00:42:04.013Z,11.19
2019-01-13T00:44:30.777Z,11.18
2019-01-13T00:46:57.425Z,11.19
2019-01-13T00:49:24.077Z,11.19
2019-01-13T00:51:50.847Z,11.21
2019-01-13T00:54:17.487Z,11.23
2019-01-13T00:56:44.137Z,11.22
2019-01-13T00:59:10.793Z,11.20
2019-01-13T01:01:37.481Z,11.19
2019-01-13T01:04:04.186Z,11.20
2019-01-13T01:06:30.855Z,11.21
2019-01-13T01:08:57.499Z,11.22
2019-01-13T01:11:24.151Z,11.22
2019-01-13T01:13:50.803Z,11.25
2019-01-13T01:16:17.448Z,11.23
2019-01-13T01:18:44.158Z,11.22
2019-01-13T01:21:10.803Z,11.27
2019-01-13T01:23:37.489Z,11.28
2019-01-13T01:26:04.140Z,11.34
2019-01-13T01:28:30.792Z,11.38
2019-01-13T01:30:57.443Z,11.36
2019-01-13T01:33:26.001Z,11.35
2019-01-13T01:35:50.835Z,11.32
2019-01-13T01:38:17.486Z,11.34
2019-01-13T01:40:44.138Z,11.30
2019-01-13T01:43:10.790Z,11.32
2019-01-13T01:45:37.433Z,11.32
2019-01-13T01:48:04.073Z,11.32
2019-01-13T01:50:30.722Z,11.34
2019-01-13T01:52:57.413Z,11.35
2019-01-13T01:55:24.066Z,11.32
2019-01-13T01:57:50.722Z,11.33
2019-01-13T02:00:17.394Z,11.37
2019-01-13T02:02:44.045Z,11.37
2019-01-13T02:05:10.695Z,11.36
2019-01-13T02:07:37.382Z,11.38
2019-01-13T02:10:04.087Z,11.36
2019-01-13T02:12:30.724Z,11.38
2019-01-13T02:14:57.372Z,11.38
2019-01-13T02:17:24.105Z,11.38
2019-01-13T02:19:50.745Z,11.37
2019-01-13T02:22:17.385Z,11.39
2019-01-13T02:24:44.040Z,11.37
2019-01-13T02:27:10.681Z,11.38
2019-01-13T02:29:37.371Z,11.36
2019-01-13T02:32:04.073Z,11.38
2019-01-13T02:34:30.713Z,11.42
2019-01-13T02:36:57.373Z,11.38
2019-01-13T02:39:24.025Z,11.39
2019-01-13T02:41:50.677Z,11.42
2019-01-13T02:44:17.334Z,11.41
2019-01-13T02:46:44.041Z,11.40
2019-01-13T02:49:10.757Z,11.40
2019-01-13T02:51:37.455Z,11.45
2019-01-13T02:54:04.106Z,11.52
2019-01-13T02:56:30.792Z,11.54
2019-01-13T02:58:57.425Z,11.47
2019-01-13T03:01:24.084Z,11.47
2019-01-13T03:03:50.743Z,11.50
2019-01-13T03:06:17.439Z,11.50
2019-01-13T03:08:44.086Z,11.49
2019-01-13T03:11:10.734Z,11.47
2019-01-13T03:13:38.593Z,11.47
2019-01-13T03:16:04.019Z,11.49
2019-01-13T03:18:30.671Z,11.50
2019-01-13T03:20:57.318Z,11.50
2019-01-13T03:23:23.968Z,11.50
2019-01-13T03:25:50.671Z,11.48
2019-01-13T03:28:17.315Z,11.51
2019-01-13T03:30:44.001Z,11.50
2019-01-13T03:33:10.645Z,11.51
2019-01-13T03:35:37.280Z,11.53
2019-01-13T03:38:03.923Z,11.62
2019-01-13T03:40:30.584Z,11.62
2019-01-13T03:42:57.265Z,11.57
2019-01-13T03:45:24.020Z,11.55
2019-01-13T03:47:50.670Z,11.59
2019-01-13T03:50:17.306Z,11.56
2019-01-13T03:52:52.321Z,11.56
2019-01-13T03:55:10.605Z,11.55
2019-01-13T03:57:37.257Z,11.56
2019-01-13T04:00:03.906Z,11.55
2019-01-13T04:02:30.536Z,11.56
2019-01-13T04:04:57.236Z,11.55
2019-01-13T04:07:23.928Z,11.61
2019-01-13T04:09:50.584Z,11.58
2019-01-13T04:12:17.225Z,11.54
2019-01-13T04:14:43.899Z,11.59
2019-01-13T04:17:10.568Z,11.59
2019-01-13T04:19:37.214Z,11.59
2019-01-13T04:22:03.870Z,11.68
2019-01-13T04:24:30.512Z,11.74
2019-01-13T04:26:57.252Z,11.65
2019-01-13T04:29:23.889Z,11.73
2019-01-13T04:31:50.582Z,11.74
2019-01-13T04:34:17.230Z,11.67
2019-01-13T04:36:43.922Z,11.66
2019-01-13T04:39:10.559Z,11.68
2019-01-13T04:41:37.248Z,11.67
2019-01-13T04:44:03.899Z,11.68
2019-01-13T04:46:30.622Z,11.69
2019-01-13T04:48:57.366Z,11.63
2019-01-13T04:51:24.012Z,11.71
2019-01-13T04:53:50.658Z,11.70
2019-01-13T04:56:17.313Z,11.72
2019-01-13T04:58:43.971Z,11.71
2019-01-13T05:01:10.658Z,11.74
2019-01-13T05:03:37.354Z,11.75
2019-01-13T05:06:03.993Z,11.82
2019-01-13T05:08:30.644Z,11.89
2019-01-13T05:10:57.291Z,11.85
2019-01-13T05:13:24.000Z,11.86
2019-01-13T05:15:50.642Z,11.84
2019-01-13T05:18:17.281Z,11.86
2019-01-13T05:20:43.982Z,11.83
2019-01-13T05:23:10.597Z,11.82
2019-01-13T05:25:37.238Z,11.79
2019-01-13T05:28:03.873Z,11.83
2019-01-13T05:30:30.530Z,11.82
2019-01-13T05:32:57.219Z,11.83
2019-01-13T05:35:23.871Z,11.85
2019-01-13T05:37:50.521Z,11.84
2019-01-13T05:40:17.179Z,11.93
2019-01-13T05:42:43.827Z,12.14
2019-01-13T05:45:10.534Z,12.30
2019-01-13T05:47:37.217Z,12.26
2019-01-13T05:50:03.854Z,12.13
2019-01-13T05:52:30.553Z,12.08
2019-01-13T05:54:57.221Z,12.09
2019-01-13T05:57:23.869Z,12.07
2019-01-13T05:59:50.521Z,12.06
2019-01-13T06:02:17.211Z,12.04
2019-01-13T06:04:43.854Z,12.01
2019-01-13T06:07:10.512Z,12.00
2019-01-13T06:09:37.149Z,12.05
2019-01-13T06:12:03.812Z,12.03
2019-01-13T06:14:30.462Z,12.03
2019-01-13T06:16:57.166Z,12.03
2019-01-13T06:19:23.812Z,12.03
2019-01-13T06:21:50.461Z,12.02
2019-01-13T06:24:17.106Z,12.12
2019-01-13T06:26:43.745Z,12.18
2019-01-13T06:29:10.385Z,12.18
2019-01-13T06:31:37.021Z,12.12
2019-01-13T06:34:03.727Z,12.14
2019-01-13T06:36:30.366Z,12.17
2019-01-13T06:38:57.015Z,12.13
2019-01-13T06:41:23.653Z,12.12
2019-01-13T06:43:50.340Z,12.12
2019-01-13T06:46:16.985Z,12.14
2019-01-13T06:48:43.675Z,12.10
2019-01-13T06:51:10.364Z,12.13
2019-01-13T06:53:37.003Z,12.13
2019-01-13T06:56:03.647Z,12.14
2019-01-13T06:58:30.306Z,12.16
2019-01-13T07:00:56.957Z,12.14
2019-01-13T07:03:23.602Z,12.16
2019-01-13T07:05:50.290Z,12.10
2019-01-13T07:08:16.928Z,12.16
2019-01-13T07:10:43.720Z,12.19
2019-01-13T07:13:10.371Z,12.25
2019-01-13T07:15:37.009Z,12.20
2019-01-13T07:18:03.654Z,12.19
2019-01-13T07:20:30.297Z,12.22
2019-01-13T07:22:56.996Z,12.20
2019-01-13T07:25:23.630Z,12.21
2019-01-13T07:27:50.341Z,12.17
2019-01-13T07:30:16.978Z,12.17
2019-01-13T07:32:43.622Z,12.18
2019-01-13T07:35:10.286Z,12.17
2019-01-13T07:37:36.929Z,12.15
2019-01-13T07:40:03.612Z,12.16
2019-01-13T07:42:30.311Z,12.15
2019-01-13T07:44:56.977Z,12.15
2019-01-13T07:47:24.740Z,12.14
2019-01-13T07:49:51.440Z,12.19
2019-01-13T07:52:18.085Z,12.17
2019-01-13T07:54:44.737Z,12.19
2019-01-13T07:57:11.377Z,12.28
2019-01-13T07:59:38.025Z,12.28
2019-01-13T08:02:04.682Z,12.23
2019-01-13T08:04:31.471Z,12.27
2019-01-13T08:06:58.118Z,12.27
2019-01-13T08:09:24.813Z,12.24
2019-01-13T08:11:51.462Z,12.23
2019-01-13T08:14:18.158Z,12.24
2019-01-13T08:16:44.796Z,12.20
2019-01-13T08:19:11.449Z,12.20
2019-01-13T08:21:38.101Z,12.23
2019-01-13T08:24:04.753Z,12.23
2019-01-13T08:26:31.391Z,12.23
2019-01-13T08:28:58.084Z,12.22
2019-01-13T08:31:24.726Z,12.22
2019-01-13T08:33:51.360Z,12.22
2019-01-13T08:36:18.006Z,12.22
2019-01-13T08:38:44.647Z,12.20
2019-01-13T08:41:11.443Z,12.25
2019-01-13T08:43:38.082Z,12.25
2019-01-13T08:46:04.732Z,12.24
2019-01-13T08:48:33.036Z,12.35
2019-01-13T08:50:58.063Z,12.38
2019-01-13T08:53:24.769Z,12.32
2019-01-13T08:55:51.414Z,12.33
2019-01-13T08:58:18.077Z,12.31
2019-01-13T09:00:44.727Z,12.31
2019-01-13T09:03:11.413Z,12.30
2019-01-13T09:05:38.104Z,12.29
2019-01-13T09:08:04.757Z,12.30
2019-01-13T09:10:31.472Z,12.28
2019-01-13T09:12:58.108Z,12.31
2019-01-13T09:15:24.747Z,12.30
2019-01-13T09:17:51.393Z,12.27
2019-01-13T09:20:18.047Z,12.28
2019-01-13T09:22:44.699Z,12.27
2019-01-13T09:25:11.347Z,12.25
2019-01-13T09:27:38.001Z,12.27
2019-01-13T09:30:04.674Z,12.27
2019-01-13T09:32:31.415Z,12.35
2019-01-13T09:34:58.054Z,12.30
2019-01-13T09:37:24.708Z,12.29
2019-01-13T09:39:51.364Z,12.33
2019-01-13T09:42:18.053Z,12.32
2019-01-13T09:44:44.718Z,12.31
2019-01-13T09:47:11.408Z,12.28
2019-01-13T09:49:38.109Z,12.33
2019-01-13T09:52:04.762Z,12.29
2019-01-13T09:54:31.420Z,12.29
2019-01-13T09:56:58.057Z,12.26
2019-01-13T09:59:24.717Z,12.28
2019-01-13T10:01:51.406Z,12.23
2019-01-13T10:04:18.097Z,12.23
2019-01-13T10:06:44.776Z,12.21
2019-01-13T10:09:11.388Z,12.21
2019-01-13T10:11:38.095Z,12.20
2019-01-13T10:14:04.732Z,12.22
2019-01-13T10:16:31.369Z,12.20
2019-01-13T10:18:58.021Z,12.18
2019-01-13T10:21:24.671Z,12.16
2019-01-13T10:23:51.355Z,12.19
2019-01-13T10:26:18.021Z,12.18
2019-01-13T10:28:44.666Z,12.15
2019-01-13T10:31:11.323Z,12.17
2019-01-13T10:33:38.021Z,12.17
2019-01-13T10:36:04.737Z,12.24
2019-01-13T10:38:31.383Z,12.20
2019-01-13T10:40:58.020Z,12.20
2019-01-13T10:43:24.677Z,12.21
2019-01-13T10:45:51.347Z,12.20
2019-01-13T10:48:18.037Z,12.22
2019-01-13T10:50:44.690Z,12.21
2019-01-13T10:53:11.340Z,12.21
2019-01-13T10:55:37.974Z,12.22
2019-01-13T10:58:04.627Z,12.22
2019-01-13T11:00:31.293Z,12.18
2019-01-13T11:03:02.058Z,12.19
2019-01-13T11:05:24.573Z,12.17
2019-01-13T11:07:51.240Z,12.23
2019-01-13T11:10:17.894Z,12.16
2019-01-13T11:12:44.585Z,12.21
2019-01-13T11:15:11.255Z,12.16
2019-01-13T11:17:37.886Z,12.20
2019-01-13T11:20:04.621Z,12.22
2019-01-13T11:22:31.260Z,12.26
2019-01-13T11:24:57.924Z,12.28
2019-01-13T11:27:24.563Z,12.26
2019-01-13T11:29:51.254Z,12.30
2019-01-13T11:32:17.946Z,12.29
2019-01-13T11:34:44.594Z,12.30
2019-01-13T11:37:11.237Z,12.32
2019-01-13T11:39:37.880Z,12.30
2019-01-13T11:42:04.573Z,12.32
2019-01-13T11:44:31.220Z,12.36
2019-01-13T11:46:57.944Z,12.37
2019-01-13T11:49:24.590Z,12.38
2019-01-13T11:51:51.245Z,12.37
2019-01-13T11:54:17.901Z,12.41
2019-01-13T11:56:44.548Z,12.43
2019-01-13T11:59:11.206Z,12.43
2019-01-13T12:01:37.852Z,12.44
2019-01-13T12:04:04.546Z,12.45
2019-01-13T12:06:31.188Z,12.48
2019-01-13T12:08:57.890Z,12.47
2019-01-13T12:11:24.537Z,12.52
2019-01-13T12:13:51.190Z,12.47
2019-01-13T12:16:17.878Z,12.53
2019-01-13T12:18:44.544Z,12.51
2019-01-13T12:21:11.195Z,12.55
2019-01-13T12:23:37.832Z,12.61
2019-01-13T12:26:04.488Z,12.60
2019-01-13T12:28:31.121Z,12.59
2019-01-13T12:30:57.809Z,12.59
2019-01-13T12:33:24.894Z,12.62
2019-01-13T12:35:51.165Z,12.57
2019-01-13T12:38:17.818Z,12.61
2019-01-13T12:40:44.458Z,12.64
2019-01-13T12:43:11.152Z,12.66
2019-01-13T12:45:37.798Z,12.65
2019-01-13T12:48:04.433Z,12.68
2019-01-13T12:50:31.084Z,12.68
2019-01-13T12:52:57.793Z,12.70
2019-01-13T12:55:24.446Z,12.71
2019-01-13T12:57:51.086Z,12.75
2019-01-13T13:00:17.747Z,12.76
2019-01-13T13:02:44.457Z,12.73
2019-01-13T13:05:11.092Z,12.75
2019-01-13T13:07:37.786Z,12.73
2019-01-13T13:10:04.427Z,12.72
2019-01-13T13:12:31.075Z,12.70
2019-01-13T13:14:57.767Z,12.73
2019-01-13T13:17:24.406Z,12.68
2019-01-13T13:19:51.042Z,12.74
2019-01-13T13:22:17.703Z,12.75
2019-01-13T13:24:44.343Z,12.75
2019-01-13T13:27:11.041Z,12.77
2019-01-13T13:29:37.685Z,12.77
2019-01-13T13:32:04.334Z,12.77
2019-01-13T13:34:30.969Z,12.79
2019-01-13T13:36:57.672Z,12.77
2019-01-13T13:39:24.314Z,12.78
2019-01-13T13:41:50.950Z,12.81
2019-01-13T13:44:17.605Z,12.82
2019-01-13T13:46:44.275Z,12.82
2019-01-13T13:49:11.034Z,12.86
2019-01-13T13:51:37.639Z,12.96
2019-01-13T13:54:04.303Z,13.10
2019-01-13T13:56:30.937Z,13.28
2019-01-13T13:58:57.593Z,13.34
2019-01-13T14:01:24.289Z,13.12
2019-01-13T14:03:50.990Z,13.05
2019-01-13T14:06:17.634Z,13.04
2019-01-13T14:08:44.282Z,13.06
2019-01-13T14:11:10.986Z,13.03
2019-01-13T14:13:37.702Z,12.98
2019-01-13T14:16:04.351Z,12.94
2019-01-13T14:18:31.048Z,12.99
2019-01-13T14:20:57.663Z,12.98
2019-01-13T14:23:24.303Z,12.97
2019-01-13T14:25:50.945Z,13.01
2019-01-13T14:28:17.598Z,13.02
2019-01-13T14:30:44.248Z,13.02
2019-01-13T14:33:10.904Z,13.01
2019-01-13T14:35:37.745Z,13.08
2019-01-13T14:38:04.383Z,13.04
2019-01-13T14:40:31.038Z,13.02
2019-01-13T14:42:57.793Z,12.96
2019-01-13T14:45:24.483Z,13.02
2019-01-13T14:47:51.118Z,13.03
2019-01-13T14:50:17.823Z,13.04
2019-01-13T14:52:44.462Z,13.10
2019-01-13T14:55:11.123Z,13.10
2019-01-13T14:57:37.760Z,13.10
2019-01-13T15:00:04.411Z,13.13
2019-01-13T15:02:31.067Z,13.18
2019-01-13T15:04:57.717Z,13.20
2019-01-13T15:07:24.369Z,13.21
2019-01-13T15:09:51.014Z,13.22
2019-01-13T15:12:17.670Z,13.23
2019-01-13T15:14:44.317Z,13.27
2019-01-13T15:17:10.974Z,13.27
2019-01-13T15:19:37.625Z,13.29
2019-01-13T15:22:04.286Z,13.28
2019-01-13T15:24:30.936Z,13.33
2019-01-13T15:26:57.673Z,13.33
2019-01-13T15:29:24.324Z,13.31
2019-01-13T15:31:50.972Z,13.38
2019-01-13T15:34:17.610Z,13.37
2019-01-13T15:36:44.264Z,13.34
2019-01-13T15:39:10.931Z,13.41
2019-01-13T15:41:37.709Z,13.40
2019-01-13T15:44:04.348Z,13.41
2019-01-13T15:46:30.989Z,13.45
2019-01-13T15:48:57.663Z,13.49
2019-01-13T15:51:24.322Z,13.51
2019-01-13T15:53:50.960Z,13.49
2019-01-13T15:56:17.615Z,13.51
2019-01-13T15:58:44.268Z,13.51
2019-01-13T16:01:10.918Z,13.51
2019-01-13T16:03:37.570Z,13.54
2019-01-13T16:06:04.224Z,13.51
2019-01-13T16:08:30.866Z,13.54
2019-01-13T16:10:59.186Z,13.55
2019-01-13T16:13:24.169Z,13.57
2019-01-13T16:15:50.818Z,13.55
2019-01-13T16:18:17.472Z,13.57
2019-01-13T16:20:44.112Z,13.56
2019-01-13T16:23:10.851Z,13.57
2019-01-13T16:25:37.489Z,13.60
2019-01-13T16:28:04.141Z,13.62
2019-01-13T16:30:30.789Z,13.62
2019-01-13T16:32:57.428Z,13.62
2019-01-13T16:35:24.139Z,13.62
2019-01-13T16:37:50.781Z,13.59
2019-01-13T16:40:17.430Z,13.58
2019-01-13T16:42:44.106Z,13.62
2019-01-13T16:45:10.754Z,13.64
2019-01-13T16:47:37.407Z,13.65
2019-01-13T16:50:04.045Z,13.65
2019-01-13T16:52:30.682Z,13.69
2019-01-13T16:54:57.344Z,13.67
2019-01-13T16:57:24.011Z,13.65
2019-01-13T16:59:50.653Z,13.67
2019-01-13T17:02:17.314Z,13.67
2019-01-13T17:04:43.962Z,13.69
2019-01-13T17:07:10.612Z,13.70
2019-01-13T17:09:37.271Z,13.70
2019-01-13T17:12:04.027Z,13.72
2019-01-13T17:14:30.663Z,13.73
2019-01-13T17:16:57.404Z,13.75
2019-01-13T17:19:24.055Z,13.74
2019-01-13T17:21:50.694Z,13.74
2019-01-13T17:24:17.369Z,13.76
2019-01-13T17:26:44.096Z,13.75
2019-01-13T17:29:10.715Z,13.77
2019-01-13T17:31:37.387Z,13.76
2019-01-13T17:34:04.149Z,13.78
2019-01-13T17:36:30.797Z,13.76
2019-01-13T17:38:57.500Z,13.77
2019-01-13T17:41:24.184Z,13.77
2019-01-13T17:43:50.824Z,13.80
2019-01-13T17:46:17.564Z,13.72
2019-01-13T17:48:44.440Z,13.78
2019-01-13T17:51:11.069Z,13.77
2019-01-13T17:53:37.779Z,13.81
2019-01-13T17:56:04.604Z,13.80
2019-01-13T17:58:31.226Z,13.84
2019-01-13T18:00:57.998Z,13.80
2019-01-13T18:03:24.751Z,13.83
2019-01-13T18:05:51.393Z,13.82
2019-01-13T18:08:18.364Z,13.82
2019-01-13T18:10:45.071Z,13.81
2019-01-13T18:13:11.722Z,13.83
2019-01-13T18:15:38.396Z,13.85
2019-01-13T18:18:05.083Z,13.88
2019-01-13T18:20:31.867Z,13.81
2019-01-13T18:22:58.787Z,13.88
2019-01-13T18:25:25.425Z,13.87
2019-01-13T18:27:52.083Z,13.88
2019-01-13T18:30:18.823Z,13.88
2019-01-13T18:32:45.479Z,13.90
2019-01-13T18:35:12.193Z,13.88
2019-01-13T18:37:38.837Z,13.91
2019-01-13T18:40:05.490Z,13.88
2019-01-13T18:42:32.140Z,13.93
2019-01-13T18:44:58.798Z,13.94
2019-01-13T18:47:25.440Z,13.93
2019-01-13T18:49:52.102Z,13.92
2019-01-13T18:52:18.819Z,13.93
2019-01-13T18:54:45.473Z,13.94
2019-01-13T18:57:12.118Z,13.95
2019-01-13T18:59:38.776Z,14.00
2019-01-13T19:02:05.420Z,13.99
2019-01-13T19:04:32.080Z,13.97
2019-01-13T19:06:58.776Z,13.99
2019-01-13T19:09:25.436Z,14.01
2019-01-13T19:11:52.092Z,14.01
2019-01-13T19:14:18.755Z,14.01
2019-01-13T19:16:45.506Z,14.02
2019-01-13T19:19:12.170Z,14.06
2019-01-13T19:21:38.826Z,14.02
2019-01-13T19:24:05.478Z,14.03
2019-01-13T19:26:32.121Z,14.04
2019-01-13T19:28:58.765Z,14.05
2019-01-13T19:31:25.440Z,14.03
2019-01-13T19:33:52.080Z,14.04
2019-01-13T19:36:18.725Z,14.02
2019-01-13T19:38:45.408Z,14.07
2019-01-13T19:41:12.056Z,14.06
2019-01-13T19:43:38.816Z,14.03
2019-01-13T19:46:05.504Z,14.04
2019-01-13T19:48:32.189Z,14.05
2019-01-13T19:50:58.830Z,14.04
2019-01-13T19:53:25.477Z,14.06
2019-01-13T19:55:52.136Z,14.03
2019-01-13T19:58:18.948Z,14.11
2019-01-13T20:00:45.601Z,14.06
2019-01-13T20:03:12.243Z,14.10
2019-01-13T20:05:38.915Z,14.08
2019-01-13T20:08:05.577Z,14.08
2019-01-13T20:10:32.218Z,14.07
2019-01-13T20:12:58.860Z,14.20
2019-01-13T20:15:25.523Z,14.19
2019-01-13T20:17:52.166Z,14.15
2019-01-13T20:20:18.891Z,14.09
2019-01-13T20:22:45.557Z,14.13
2019-01-13T20:25:12.206Z,14.04
2019-01-13T20:27:38.858Z,14.07
2019-01-13T20:30:05.494Z,14.06
2019-01-13T20:32:32.290Z,14.01
2019-01-13T20:34:58.993Z,14.03
2019-01-13T20:37:25.631Z,14.06
2019-01-13T20:39:52.299Z,14.02
2019-01-13T20:42:20.002Z,14.00
2019-01-13T20:44:45.593Z,14.00
2019-01-13T20:47:12.292Z,13.99
2019-01-13T20:49:38.928Z,13.97
2019-01-13T20:52:05.588Z,13.97
2019-01-13T20:54:32.279Z,13.97
2019-01-13T20:56:58.886Z,13.96
2019-01-13T20:59:25.533Z,14.00
2019-01-13T21:01:52.168Z,14.07
2019-01-13T21:04:18.857Z,14.11
2019-01-13T21:06:45.499Z,14.03
2019-01-13T21:09:12.155Z,14.01
2019-01-13T21:11:38.795Z,13.98
2019-01-13T21:14:05.452Z,13.95
2019-01-13T21:16:32.100Z,13.95
2019-01-13T21:18:58.917Z,13.91
2019-01-13T21:21:25.554Z,13.86
2019-01-13T21:23:52.207Z,13.89
2019-01-13T21:26:18.882Z,13.87
2019-01-13T21:28:45.571Z,13.83
2019-01-13T21:31:12.213Z,13.82
2019-01-13T21:33:38.855Z,13.81
2019-01-13T21:36:05.619Z,13.79
2019-01-13T21:38:32.274Z,13.77
2019-01-13T21:40:58.932Z,13.76
2019-01-13T21:43:25.586Z,13.81
2019-01-13T21:45:52.231Z,13.86
2019-01-13T21:48:18.937Z,13.86
2019-01-13T21:50:45.594Z,13.82
2019-01-13T21:53:12.250Z,13.83
2019-01-13T21:55:38.886Z,13.83
2019-01-13T21:58:05.584Z,13.77
2019-01-13T22:00:32.291Z,13.71
2019-01-13T22:02:58.930Z,13.71
2019-01-13T22:05:25.570Z,13.66
2019-01-13T22:07:52.237Z,13.67
2019-01-13T22:10:18.952Z,13.61
2019-01-13T22:12:45.604Z,13.58
2019-01-13T22:15:12.250Z,13.59
2019-01-13T22:17:38.900Z,13.56
2019-01-13T22:20:05.571Z,13.64
2019-01-13T22:22:32.254Z,13.85
2019-01-13T22:24:58.911Z,13.93
2019-01-13T22:27:25.572Z,13.82
2019-01-13T22:29:52.227Z,13.71
2019-01-13T22:32:18.882Z,13.62
2019-01-13T22:34:45.522Z,13.64
2019-01-13T22:37:12.210Z,13.55
2019-01-13T22:39:38.864Z,13.51
2019-01-13T22:42:05.559Z,13.52
2019-01-13T22:44:32.272Z,13.48
2019-01-13T22:46:58.919Z,13.43
2019-01-13T22:49:25.757Z,13.42
2019-01-13T22:51:52.476Z,13.33
2019-01-13T22:54:19.118Z,13.40
2019-01-13T22:56:45.777Z,13.42
2019-01-13T22:59:12.486Z,13.38
2019-01-13T23:01:39.172Z,13.41
2019-01-13T23:04:05.859Z,13.35
2019-01-13T23:06:32.503Z,13.42
2019-01-13T23:08:59.152Z,13.49
2019-01-13T23:11:25.795Z,13.43
2019-01-13T23:13:52.438Z,13.38
2019-01-13T23:16:19.146Z,13.38
2019-01-13T23:18:45.794Z,13.36
2019-01-13T23:21:12.496Z,13.31
2019-01-13T23:23:39.147Z,13.27
2019-01-13T23:26:05.847Z,13.27
2019-01-13T23:28:32.490Z,13.23
2019-01-13T23:30:59.186Z,13.17
2019-01-13T23:33:25.847Z,13.22
2019-01-13T23:35:52.496Z,13.21
2019-01-13T23:38:19.154Z,13.20
2019-01-13T23:40:45.794Z,13.16
2019-01-13T23:43:12.434Z,13.18
2019-01-13T23:45:39.140Z,13.12
2019-01-13T23:48:05.797Z,13.13
2019-01-13T23:50:32.433Z,13.07
2019-01-13T23:52:59.094Z,13.07
2019-01-13T23:55:25.737Z,13.05
2019-01-13T23:57:52.440Z,13.03
